Time;durP1;ratioP1;P1;durP2;ratioP2;P2;SDS_P1;SDS_P2;PMS_P1;PMS_P2;Temp;Humidity;BMP_temperature;BMP_pressure;BME280_temperature;BME280_humidity;BME280_pressure;Samples;Min_cycle;Max_cycle;Signal;HPM_P1;HPM_P2
2021/07/05 00:01:49;;;;;;;9.00;7.90;;;18.00;99.50;;;;;;5023070;28;20114;-87
2021/07/05 00:04:14;;;;;;;8.65;7.55;;;18.00;99.80;;;;;;5023084;28;20025;-86
2021/07/05 00:06:40;;;;;;;9.35;7.97;;;18.00;99.50;;;;;;5023185;28;20120;-87
2021/07/05 00:09:06;;;;;;;8.50;7.60;;;18.00;99.50;;;;;;5023108;28;20090;-87
2021/07/05 00:11:33;;;;;;;9.07;8.18;;;17.90;99.50;;;;;;5056111;28;20028;-86
2021/07/05 00:13:59;;;;;;;8.50;7.47;;;17.90;99.40;;;;;;5039202;28;20047;-87
2021/07/05 00:16:25;;;;;;;9.75;7.63;;;17.90;99.50;;;;;;5056001;28;20020;-86
2021/07/05 00:18:50;;;;;;;9.75;7.50;;;17.90;99.60;;;;;;5036266;28;20091;-87
2021/07/05 00:21:16;;;;;;;8.73;7.45;;;17.90;99.60;;;;;;5052669;28;20032;-87
2021/07/05 00:23:42;;;;;;;7.82;7.03;;;17.90;99.60;;;;;;5052979;28;20035;-87
2021/07/05 00:26:09;;;;;;;10.32;6.63;;;17.90;99.60;;;;;;5052610;28;20112;-87
2021/07/05 00:28:35;;;;;;;7.78;6.47;;;17.90;99.60;;;;;;5052476;28;20032;-87
2021/07/05 00:31:01;;;;;;;9.90;6.75;;;17.90;99.60;;;;;;5036385;28;20092;-87
2021/07/05 00:33:27;;;;;;;7.30;6.40;;;17.90;99.60;;;;;;5052468;28;20116;-88
2021/07/05 00:35:53;;;;;;;7.13;6.05;;;17.90;99.60;;;;;;5052677;28;20494;-87
2021/07/05 00:38:18;;;;;;;8.60;7.03;;;17.90;99.60;;;;;;5052465;28;20497;-87
2021/07/05 00:40:44;;;;;;;6.38;5.78;;;17.90;99.70;;;;;;5036304;28;20064;-87
2021/07/05 00:43:10;;;;;;;6.35;5.75;;;17.80;99.70;;;;;;5039628;28;20037;-87
2021/07/05 00:45:35;;;;;;;6.90;5.38;;;17.80;99.70;;;;;;5056689;28;20029;-87
2021/07/05 00:48:01;;;;;;;6.45;5.68;;;17.80;99.80;;;;;;5056181;28;20056;-87
2021/07/05 00:50:28;;;;;;;7.43;5.50;;;17.80;99.80;;;;;;5064293;28;20117;-87
2021/07/05 00:52:56;;;;;;;5.53;4.65;;;17.80;99.80;;;;;;5097827;28;20093;-87
2021/07/05 00:55:23;;;;;;;8.35;4.60;;;17.90;99.90;;;;;;5096782;28;20028;-87
2021/07/05 00:57:49;;;;;;;7.13;4.97;;;17.80;99.90;;;;;;5062879;28;20462;-87
2021/07/05 01:00:18;;;;;;;4.93;4.15;;;17.80;99.80;;;;;;5026531;28;20401;-87
2021/07/05 01:02:44;;;;;;;5.15;4.25;;;17.80;99.80;;;;;;5059390;28;20048;-87
2021/07/05 01:05:11;;;;;;;5.20;4.30;;;17.80;99.90;;;;;;5042790;28;20433;-87
2021/07/05 01:07:38;;;;;;;4.95;4.13;;;17.80;99.90;;;;;;5091149;28;20063;-87
2021/07/05 01:10:05;;;;;;;4.93;4.18;;;17.80;99.90;;;;;;5079371;28;20024;-87
2021/07/05 01:12:31;;;;;;;6.22;3.85;;;17.80;99.90;;;;;;5050569;28;20032;-87
2021/07/05 01:14:57;;;;;;;5.25;3.85;;;17.80;99.90;;;;;;5058992;28;20048;-87
2021/07/05 01:17:23;;;;;;;4.80;3.67;;;17.80;99.90;;;;;;5042451;28;20024;-86
2021/07/05 01:19:50;;;;;;;6.95;3.92;;;17.80;99.90;;;;;;5042395;28;20028;-87
2021/07/05 01:22:17;;;;;;;5.43;4.03;;;17.70;99.80;;;;;;5039213;28;20029;-86
2021/07/05 01:24:44;;;;;;;6.57;4.10;;;17.70;99.80;;;;;;5039244;28;20040;-87
2021/07/05 01:27:10;;;;;;;5.43;4.20;;;17.70;99.90;;;;;;5072706;28;20086;-87
2021/07/05 01:29:36;;;;;;;5.93;4.00;;;17.70;99.80;;;;;;5062546;28;20142;-87
2021/07/05 01:32:03;;;;;;;9.23;3.90;;;17.70;99.80;;;;;;5079344;28;20020;-88
2021/07/05 01:34:29;;;;;;;6.03;4.13;;;17.70;99.90;;;;;;5062679;28;20115;-87
2021/07/05 01:36:54;;;;;;;5.85;3.75;;;17.70;99.90;;;;;;5062465;28;20112;-86
2021/07/05 01:39:21;;;;;;;5.63;4.22;;;17.70;99.90;;;;;;5062294;28;20032;-87
2021/07/05 01:41:47;;;;;;;5.35;3.88;;;17.70;99.90;;;;;;5064519;28;20553;-87
2021/07/05 01:44:13;;;;;;;6.70;3.72;;;17.70;99.90;;;;;;5056731;28;20136;-87
2021/07/05 01:46:40;;;;;;;4.88;3.78;;;17.70;99.90;;;;;;5053202;28;20030;-87
2021/07/05 01:49:06;;;;;;;6.03;4.10;;;17.70;99.80;;;;;;5075217;28;20032;-87
2021/07/05 01:51:32;;;;;;;8.80;3.85;;;17.70;99.70;;;;;;5042089;28;20024;-87
2021/07/05 01:53:58;;;;;;;4.47;3.58;;;17.60;99.60;;;;;;5057426;28;20013;-87
2021/07/05 01:56:24;;;;;;;5.22;3.72;;;17.60;99.60;;;;;;5025605;28;20111;-87
2021/07/05 01:58:49;;;;;;;5.18;3.60;;;17.50;99.70;;;;;;5053225;28;20469;-87
2021/07/05 02:01:15;;;;;;;5.45;4.00;;;17.50;99.70;;;;;;5062009;28;20024;-87
2021/07/05 02:03:41;;;;;;;5.40;3.75;;;17.50;99.80;;;;;;5061768;28;20428;-86
2021/07/05 02:06:07;;;;;;;5.93;4.10;;;17.50;99.80;;;;;;5077267;28;20020;-87
2021/07/05 02:08:32;;;;;;;6.03;3.63;;;17.50;99.80;;;;;;5041888;28;20032;-87
2021/07/05 02:10:58;;;;;;;5.88;3.72;;;17.50;99.80;;;;;;5041859;28;20031;-87
2021/07/05 02:13:27;;;;;;;5.30;4.07;;;17.50;99.70;;;;;;5041720;28;20462;-87
2021/07/05 02:15:55;;;;;;;6.15;3.83;;;17.50;99.70;;;;;;5058049;28;20040;-87
2021/07/05 02:18:22;;;;;;;5.88;3.90;;;17.50;99.70;;;;;;5043933;28;20017;-86
2021/07/05 02:20:49;;;;;;;6.43;3.88;;;17.50;99.60;;;;;;5021658;28;20185;-86
2021/07/05 02:23:18;;;;;;;6.10;4.10;;;17.50;99.60;;;;;;5046840;28;20075;-86
2021/07/05 02:25:44;;;;;;;6.50;4.03;;;17.50;99.70;;;;;;5056670;28;20017;-87
2021/07/05 02:28:14;;;;;;;5.00;4.03;;;17.50;99.60;;;;;;5057633;28;20031;-87
2021/07/05 02:30:41;;;;;;;4.75;4.10;;;17.50;99.50;;;;;;5057721;28;20048;-87
2021/07/05 02:33:07;;;;;;;6.13;4.40;;;17.40;99.50;;;;;;5024795;28;20052;-87
2021/07/05 02:35:35;;;;;;;5.25;3.63;;;17.40;99.60;;;;;;5041221;28;20067;-86
2021/07/05 02:38:03;;;;;;;5.45;3.83;;;17.30;99.60;;;;;;5058242;28;20036;-87
2021/07/05 02:40:33;;;;;;;7.07;3.65;;;17.30;99.70;;;;;;5057849;28;20107;-86
2021/07/05 02:42:59;;;;;;;4.37;3.27;;;17.30;99.80;;;;;;5057807;28;20461;-87
2021/07/05 02:45:27;;;;;;;4.85;3.47;;;17.30;99.90;;;;;;5057710;28;20027;-86
2021/07/05 02:47:56;;;;;;;5.55;3.80;;;17.30;99.90;;;;;;5058976;28;20020;-86
2021/07/05 02:50:22;;;;;;;5.18;3.25;;;17.30;99.90;;;;;;5057385;28;20078;-87
2021/07/05 02:52:49;;;;;;;6.53;3.53;;;17.30;99.90;;;;;;5057237;28;20025;-87
2021/07/05 02:55:15;;;;;;;4.45;3.60;;;17.30;99.90;;;;;;5040619;28;20119;-87
2021/07/05 02:58:06;;;;;;;4.45;3.67;;;17.30;99.90;;;;;;5057419;28;20025;-86
2021/07/05 03:00:40;;;;;;;7.03;3.75;;;17.20;99.90;;;;;;5074126;28;20013;-86
2021/07/05 03:03:07;;;;;;;5.07;3.65;;;17.20;99.90;;;;;;5056988;28;20052;-86
2021/07/05 03:05:32;;;;;;;5.28;4.00;;;17.20;99.90;;;;;;5040109;28;20031;-86
2021/07/05 03:07:58;;;;;;;6.63;4.13;;;17.20;99.90;;;;;;5040271;28;20028;-86
2021/07/05 03:10:27;;;;;;;6.50;4.18;;;17.10;99.90;;;;;;5040519;28;20482;-87
2021/07/05 03:12:54;;;;;;;5.25;4.47;;;17.10;99.90;;;;;;5070707;28;20152;-87
2021/07/05 03:15:20;;;;;;;5.75;4.75;;;17.00;99.90;;;;;;5040144;28;20115;-87
2021/07/05 03:17:47;;;;;;;6.13;4.25;;;17.00;99.90;;;;;;5056879;28;20047;-87
2021/07/05 03:20:19;;;;;;;7.60;4.13;;;17.00;99.90;;;;;;5057311;28;20043;-86
2021/07/05 03:22:46;;;;;;;5.05;4.18;;;16.90;99.90;;;;;;5039659;28;20107;-86
2021/07/05 03:25:13;;;;;;;5.93;4.22;;;16.90;99.90;;;;;;5055050;28;20098;-87
2021/07/05 03:27:40;;;;;;;5.50;4.55;;;16.90;99.90;;;;;;5054392;28;20033;-86
2021/07/05 03:30:08;;;;;;;6.47;4.47;;;17.00;99.90;;;;;;5036767;28;20021;-87
2021/07/05 03:32:34;;;;;;;6.13;4.30;;;16.90;99.90;;;;;;5050012;28;20028;-87
2021/07/05 03:35:02;;;;;;;6.10;4.82;;;16.90;99.90;;;;;;5045138;28;20077;-87
2021/07/05 03:37:28;;;;;;;6.32;4.45;;;16.90;99.90;;;;;;5076590;28;20055;-86
2021/07/05 03:39:53;;;;;;;8.48;5.22;;;16.90;99.90;;;;;;5038053;28;20383;-87
2021/07/05 03:42:19;;;;;;;6.38;4.70;;;16.90;99.90;;;;;;5026383;28;20025;-87
2021/07/05 03:44:45;;;;;;;10.30;4.70;;;16.90;99.90;;;;;;5038183;28;20025;-86
2021/07/05 03:47:10;;;;;;;7.20;4.50;;;16.90;99.90;;;;;;5023406;28;20493;-87
2021/07/05 03:49:36;;;;;;;6.93;5.32;;;17.00;99.90;;;;;;5036376;28;20029;-86
2021/07/05 03:52:02;;;;;;;7.97;5.45;;;17.00;99.90;;;;;;5058924;28;20025;-87
2021/07/05 03:54:28;;;;;;;10.35;5.68;;;17.00;99.90;;;;;;5037875;28;20107;-87
2021/07/05 03:56:54;;;;;;;9.52;6.10;;;17.00;99.90;;;;;;5030678;28;20051;-87
2021/07/05 03:59:19;;;;;;;6.63;4.57;;;16.90;99.90;;;;;;5062388;28;20033;-87
2021/07/05 04:01:45;;;;;;;6.72;3.90;;;16.90;99.90;;;;;;5039412;28;20028;-87
2021/07/05 04:04:11;;;;;;;9.65;3.28;;;16.80;99.90;;;;;;5067627;28;20024;-86
2021/07/05 04:06:37;;;;;;;8.45;2.97;;;16.80;99.90;;;;;;5045931;28;20028;-87
2021/07/05 04:09:05;;;;;;;6.32;2.65;;;16.80;99.90;;;;;;5055791;28;20021;-88
2021/07/05 04:11:31;;;;;;;6.18;2.60;;;16.70;99.90;;;;;;5056073;28;20466;-88
2021/07/05 04:13:57;;;;;;;4.38;2.30;;;16.70;99.90;;;;;;5175116;23;20048;-87
2021/07/05 04:16:24;;;;;;;5.00;2.25;;;16.60;99.90;;;;;;5057933;28;20028;-86
2021/07/05 04:18:50;;;;;;;4.97;2.00;;;16.60;99.90;;;;;;5059221;28;20020;-87
2021/07/05 04:21:15;;;;;;;5.22;2.28;;;16.60;99.90;;;;;;5059987;28;20473;-88
2021/07/05 04:23:41;;;;;;;3.08;1.80;;;16.50;99.90;;;;;;5059451;28;20031;-88
2021/07/05 04:26:07;;;;;;;4.10;2.20;;;16.40;99.90;;;;;;5058289;28;20020;-88
2021/07/05 04:28:33;;;;;;;4.15;2.50;;;16.30;99.90;;;;;;5029878;28;20028;-88
2021/07/05 04:30:58;;;;;;;4.20;1.85;;;16.30;99.90;;;;;;5058864;28;20062;-88
2021/07/05 04:33:24;;;;;;;3.17;1.70;;;16.20;99.90;;;;;;5055760;28;20051;-88
2021/07/05 04:35:50;;;;;;;2.22;1.70;;;16.20;99.90;;;;;;5059748;28;20024;-87
2021/07/05 04:38:16;;;;;;;4.90;2.05;;;16.20;99.90;;;;;;5080161;28;20028;-88
2021/07/05 04:40:42;;;;;;;4.22;2.20;;;16.10;99.90;;;;;;5063402;28;20031;-88
2021/07/05 04:43:10;;;;;;;3.60;1.73;;;16.10;99.90;;;;;;5076095;28;20016;-88
2021/07/05 04:45:37;;;;;;;4.22;2.03;;;16.10;99.90;;;;;;5052132;28;20024;-88
2021/07/05 04:48:05;;;;;;;5.20;2.33;;;16.00;99.90;;;;;;5071250;28;20059;-88
2021/07/05 04:50:32;;;;;;;4.53;2.92;;;16.00;99.90;;;;;;5072996;28;20020;-88
2021/07/05 04:52:59;;;;;;;3.28;1.90;;;16.00;99.90;;;;;;5056897;28;20519;-88
2021/07/05 04:55:25;;;;;;;4.78;1.90;;;15.90;99.90;;;;;;5058191;28;20101;-86
2021/07/05 04:57:52;;;;;;;5.20;2.10;;;15.90;99.90;;;;;;5058307;28;20028;-88
2021/07/05 05:00:31;;;;;;;6.90;2.20;;;15.90;99.90;;;;;;5059288;28;20032;-88
2021/07/05 05:02:57;;;;;;;5.68;2.28;;;15.90;99.90;;;;;;5088595;28;20027;-88
2021/07/05 05:05:23;;;;;;;4.22;2.17;;;15.90;99.90;;;;;;5071924;28;20020;-88
2021/07/05 05:07:50;;;;;;;5.13;2.50;;;15.80;99.90;;;;;;5069052;28;20388;-88
2021/07/05 05:10:18;;;;;;;5.00;2.22;;;15.80;99.90;;;;;;5084774;28;20024;-89
2021/07/05 05:12:44;;;;;;;4.82;2.40;;;15.80;99.90;;;;;;5058251;28;20020;-88
2021/07/05 05:15:11;;;;;;;7.60;2.42;;;15.80;99.90;;;;;;5072166;28;20040;-88
2021/07/05 05:17:37;;;;;;;5.60;2.70;;;15.80;99.90;;;;;;5075044;28;20074;-88
2021/07/05 05:20:05;;;;;;;4.60;2.50;;;15.80;99.90;;;;;;5074230;28;20058;-88
2021/07/05 05:22:31;;;;;;;7.60;2.80;;;15.80;99.90;;;;;;5083633;28;20032;-88
2021/07/05 05:24:56;;;;;;;4.53;2.53;;;15.80;99.90;;;;;;5081948;28;20085;-88
2021/07/05 05:27:22;;;;;;;4.45;2.65;;;15.80;99.90;;;;;;5050017;28;20024;-88
2021/07/05 05:29:48;;;;;;;6.03;2.85;;;15.80;99.90;;;;;;5079022;28;20110;-88
2021/07/05 05:32:13;;;;;;;4.50;2.63;;;15.80;99.90;;;;;;5062381;28;20131;-89
2021/07/05 05:34:39;;;;;;;5.25;2.80;;;15.80;99.90;;;;;;5059256;28;20083;-88
2021/07/05 05:37:05;;;;;;;7.30;3.10;;;15.80;99.90;;;;;;5092275;28;20024;-88
2021/07/05 05:39:31;;;;;;;5.72;2.85;;;15.70;99.90;;;;;;5060956;28;20131;-89
2021/07/05 05:41:56;;;;;;;4.93;2.92;;;15.70;99.90;;;;;;5044742;28;20028;-89
2021/07/05 05:44:22;;;;;;;7.90;3.50;;;15.70;99.90;;;;;;5061752;28;20039;-88
2021/07/05 05:46:47;;;;;;;5.60;2.97;;;15.70;99.90;;;;;;5062113;28;20036;-89
2021/07/05 05:49:13;;;;;;;7.95;3.42;;;15.70;99.90;;;;;;5057934;28;20127;-88
2021/07/05 05:51:39;;;;;;;6.72;3.58;;;15.70;99.90;;;;;;5077757;28;20111;-89
2021/07/05 05:54:07;;;;;;;9.77;4.13;;;15.60;99.90;;;;;;5059390;28;20116;-88
2021/07/05 05:56:34;;;;;;;8.18;4.00;;;15.60;99.90;;;;;;5067693;28;20032;-89
2021/07/05 05:59:06;;;;;;;6.85;3.38;;;15.60;99.90;;;;;;5060738;28;20398;-88
2021/07/05 06:01:34;;;;;;;6.53;3.58;;;15.60;99.90;;;;;;5077718;28;20081;-88
2021/07/05 06:04:00;;;;;;;6.30;3.83;;;15.60;99.90;;;;;;5060780;28;20126;-89
2021/07/05 06:06:26;;;;;;;7.05;3.60;;;15.60;99.90;;;;;;5060677;28;20114;-88
2021/07/05 06:08:52;;;;;;;7.15;4.07;;;15.60;99.90;;;;;;5091597;28;20115;-88
2021/07/05 06:11:18;;;;;;;7.60;3.83;;;15.60;99.90;;;;;;5077577;28;20469;-88
2021/07/05 06:13:44;;;;;;;6.82;4.00;;;15.60;99.90;;;;;;5060605;28;20044;-88
2021/07/05 06:16:10;;;;;;;8.50;4.70;;;15.60;99.90;;;;;;5090599;28;20373;-88
2021/07/05 06:18:36;;;;;;;7.95;4.65;;;15.60;99.90;;;;;;5042527;28;20025;-88
2021/07/05 06:21:03;;;;;;;8.60;4.55;;;15.60;99.90;;;;;;5072838;28;20026;-88
2021/07/05 06:23:29;;;;;;;11.82;5.25;;;15.60;99.90;;;;;;5037738;28;20081;-88
2021/07/05 06:25:56;;;;;;;10.90;5.03;;;15.60;99.90;;;;;;5069015;28;20028;-88
2021/07/05 06:28:23;;;;;;;10.80;5.28;;;15.60;99.90;;;;;;5087168;28;20477;-88
2021/07/05 06:30:50;;;;;;;17.17;5.88;;;15.60;99.90;;;;;;5070404;28;20024;-88
2021/07/05 06:33:17;;;;;;;11.18;5.80;;;15.60;99.90;;;;;;5092944;28;20025;-89
2021/07/05 06:35:44;;;;;;;11.43;6.25;;;15.60;99.90;;;;;;5054672;28;20024;-89
2021/07/05 06:38:11;;;;;;;10.77;5.32;;;15.60;99.90;;;;;;5078046;28;20040;-89
2021/07/05 06:40:38;;;;;;;11.95;5.88;;;15.60;99.90;;;;;;5068275;28;20469;-88
2021/07/05 06:43:04;;;;;;;9.82;5.65;;;15.60;99.90;;;;;;5062492;28;20037;-87
2021/07/05 06:45:31;;;;;;;10.40;5.63;;;15.60;99.90;;;;;;5066921;28;20020;-87
2021/07/05 06:47:57;;;;;;;11.13;5.75;;;15.60;99.90;;;;;;5080145;28;20149;-88
2021/07/05 06:50:24;;;;;;;11.73;5.72;;;15.60;99.90;;;;;;5045368;28;20040;-88
2021/07/05 06:52:51;;;;;;;8.88;5.30;;;15.60;99.90;;;;;;5056278;28;20013;-89
2021/07/05 06:55:17;;;;;;;10.93;6.20;;;15.60;99.90;;;;;;5060310;28;20029;-88
2021/07/05 06:57:42;;;;;;;14.20;6.80;;;15.60;99.90;;;;;;5058968;28;20031;-88
2021/07/05 07:00:14;;;;;;;13.50;7.18;;;15.60;99.90;;;;;;5060932;28;20028;-88
2021/07/05 07:02:41;;;;;;;11.13;6.55;;;15.70;99.90;;;;;;5052753;28;20047;-88
2021/07/05 07:05:11;;;;;;;9.73;6.30;;;15.70;99.90;;;;;;5055268;28;20025;-87
2021/07/05 07:07:38;;;;;;;9.45;5.57;;;15.70;99.90;;;;;;5051006;28;20039;-86
2021/07/05 07:10:05;;;;;;;9.88;5.93;;;15.70;99.90;;;;;;5048014;28;20642;-87
2021/07/05 07:12:34;;;;;;;10.85;6.22;;;15.70;99.90;;;;;;5059085;28;20027;-86
2021/07/05 07:15:00;;;;;;;9.65;5.80;;;15.70;99.90;;;;;;5070260;28;20044;-87
2021/07/05 07:17:31;;;;;;;18.27;7.50;;;15.80;99.90;;;;;;5058702;28;20470;-81
2021/07/05 07:19:56;;;;;;;10.10;6.18;;;15.70;99.90;;;;;;5049021;28;20039;-81
2021/07/05 07:22:22;;;;;;;14.80;5.90;;;15.80;99.90;;;;;;5041354;28;20028;-81
2021/07/05 07:24:48;;;;;;;10.25;5.72;;;15.80;99.90;;;;;;5054148;28;20035;-81
2021/07/05 07:27:14;;;;;;;10.68;6.05;;;15.90;99.90;;;;;;5082543;28;20028;-81
2021/07/05 07:29:40;;;;;;;10.55;5.72;;;15.90;99.90;;;;;;5069048;28;20025;-81
2021/07/05 07:32:06;;;;;;;12.10;6.00;;;15.90;99.90;;;;;;5055800;28;20124;-82
2021/07/05 07:34:50;;;;;;;13.02;5.90;;;16.00;99.90;;;;;;5054176;28;20461;-82
2021/07/05 07:37:16;;;;;;;11.15;6.30;;;15.90;99.90;;;;;;5073464;28;20389;-81
2021/07/05 07:39:45;;;;;;;10.68;6.32;;;16.00;99.90;;;;;;5092592;28;20032;-82
2021/07/05 07:42:11;;;;;;;12.27;6.32;;;16.00;99.90;;;;;;5064144;28;20474;-82
2021/07/05 07:44:37;;;;;;;14.13;6.63;;;16.00;99.90;;;;;;5061069;28;20063;-81
2021/07/05 07:47:04;;;;;;;15.40;7.53;;;16.10;99.90;;;;;;5074306;28;20046;-80
2021/07/05 07:49:31;;;;;;;10.23;6.30;;;16.10;99.90;;;;;;5082845;28;20035;-81
2021/07/05 07:52:01;;;;;;;11.48;6.75;;;16.20;99.90;;;;;;5074931;28;20043;-81
2021/07/05 07:54:27;;;;;;;13.32;6.18;;;16.20;99.90;;;;;;5093664;28;20378;-80
2021/07/05 07:56:54;;;;;;;10.82;6.35;;;16.30;99.90;;;;;;5051396;28;20024;-81
2021/07/05 07:59:20;;;;;;;13.20;6.57;;;16.40;99.90;;;;;;5069061;28;20491;-82
2021/07/05 08:01:46;;;;;;;9.90;6.68;;;16.40;99.90;;;;;;5069865;28;20107;-80
2021/07/05 08:04:13;;;;;;;12.32;7.07;;;16.50;99.90;;;;;;5076655;28;20043;-81
2021/07/05 08:06:39;;;;;;;12.43;6.40;;;16.50;99.90;;;;;;5090814;28;20020;-82
2021/07/05 08:09:06;;;;;;;13.32;6.47;;;16.50;99.90;;;;;;5091570;28;20060;-81
2021/07/05 08:11:33;;;;;;;14.05;6.80;;;16.60;99.90;;;;;;5075510;28;20016;-81
2021/07/05 08:14:03;;;;;;;11.57;6.60;;;16.60;99.90;;;;;;5072077;28;20044;-82
2021/07/05 08:16:29;;;;;;;11.60;5.80;;;16.60;99.90;;;;;;5063516;28;20059;-82
2021/07/05 08:18:55;;;;;;;10.32;6.28;;;16.70;99.90;;;;;;5078289;28;20024;-82
2021/07/05 08:21:22;;;;;;;15.18;6.55;;;16.70;99.90;;;;;;5065207;28;20021;-82
2021/07/05 08:23:47;;;;;;;16.13;6.57;;;16.70;99.90;;;;;;5043824;28;20054;-81
2021/07/05 08:26:13;;;;;;;12.90;5.95;;;16.70;99.90;;;;;;5050489;28;20745;-82
2021/07/05 08:28:39;;;;;;;11.30;5.78;;;16.70;99.90;;;;;;5071851;28;20042;-82
2021/07/05 08:31:07;;;;;;;17.10;6.47;;;16.70;99.90;;;;;;5063802;28;20024;-81
2021/07/05 08:33:33;;;;;;;14.98;6.72;;;16.70;99.90;;;;;;5083142;28;20025;-81
2021/07/05 08:36:00;;;;;;;13.55;6.60;;;16.70;99.90;;;;;;5087739;28;20008;-82
2021/07/05 08:38:27;;;;;;;14.13;6.63;;;16.80;99.90;;;;;;5068431;28;20024;-81
2021/07/05 08:40:54;;;;;;;15.32;6.05;;;16.70;99.90;;;;;;5079024;28;20377;-82
2021/07/05 08:43:25;;;;;;;13.05;5.95;;;16.80;99.90;;;;;;5044183;28;20056;-82
2021/07/05 08:46:00;;;;;;;12.75;5.75;;;16.80;99.90;;;;;;5054023;28;20029;-82
2021/07/05 08:48:29;;;;;;;9.13;5.28;;;16.80;99.90;;;;;;5070537;28;20465;-82
2021/07/05 08:50:58;;;;;;;12.50;5.35;;;16.80;99.90;;;;;;5071635;28;20025;-83
2021/07/05 08:53:23;;;;;;;11.07;5.45;;;16.80;99.90;;;;;;5053632;28;20496;-83
2021/07/05 08:55:49;;;;;;;10.27;5.10;;;16.80;99.90;;;;;;5071816;28;20024;-82
2021/07/05 08:58:15;;;;;;;7.97;5.00;;;16.90;99.90;;;;;;5053912;28;20474;-82
2021/07/05 09:00:40;;;;;;;11.48;6.00;;;16.90;99.90;;;;;;5062852;28;20036;-82
2021/07/05 09:03:07;;;;;;;12.05;5.25;;;17.00;99.90;;;;;;5064211;28;20113;-82
2021/07/05 09:05:33;;;;;;;10.43;5.20;;;17.00;99.90;;;;;;5062802;28;20458;-82
2021/07/05 09:08:08;;;;;;;12.32;5.53;;;17.00;99.90;;;;;;5077049;28;20025;-82
2021/07/05 09:10:49;;;;;;;9.85;5.25;;;17.00;99.90;;;;;;5059100;28;20025;-82
2021/07/05 09:13:24;;;;;;;12.43;6.20;;;17.00;99.90;;;;;;5075772;28;20028;-81
2021/07/05 09:15:58;;;;;;;10.68;5.13;;;17.00;99.90;;;;;;5076955;28;20370;-82
2021/07/05 09:18:38;;;;;;;9.80;5.50;;;17.10;99.90;;;;;;5041998;28;20025;-82
2021/07/05 09:21:20;;;;;;;9.00;5.20;;;17.10;99.90;;;;;;5075254;28;20028;-82
2021/07/05 09:23:53;;;;;;;14.73;5.90;;;17.20;99.90;;;;;;5073820;28;20048;-82
2021/07/05 09:26:22;;;;;;;11.70;5.88;;;17.20;99.90;;;;;;5066050;28;20028;-82
2021/07/05 09:28:50;;;;;;;8.68;5.10;;;17.30;99.90;;;;;;5079404;28;20358;-83
2021/07/05 09:31:28;;;;;;;11.48;6.22;;;17.30;99.90;;;;;;5052040;28;20017;-82
2021/07/05 09:33:54;;;;;;;14.98;6.80;;;17.30;99.90;;;;;;5078464;28;20020;-82
2021/07/05 09:36:22;;;;;;;12.23;5.53;;;17.30;99.90;;;;;;5079396;28;20139;-83
2021/07/05 09:38:48;;;;;;;9.80;5.65;;;17.40;99.90;;;;;;5064656;28;20134;-82
2021/07/05 09:41:37;;;;;;;9.20;5.35;;;17.40;99.90;;;;;;5030690;28;20029;-82
2021/07/05 09:44:10;;;;;;;11.32;5.68;;;17.40;99.90;;;;;;5053211;28;20055;-83
2021/07/05 09:46:57;;;;;;;9.35;5.05;;;17.40;99.90;;;;;;5073882;28;20472;-83
2021/07/05 09:49:30;;;;;;;8.60;4.78;;;17.50;99.90;;;;;;5073096;28;20032;-83
2021/07/05 09:52:05;;;;;;;8.88;5.78;;;17.50;99.90;;;;;;5077512;28;20066;-83
2021/07/05 09:54:33;;;;;;;11.80;5.43;;;17.50;99.90;;;;;;5056662;28;20473;-84
2021/07/05 09:56:59;;;;;;;11.98;5.28;;;17.50;99.90;;;;;;5061772;28;20111;-84
2021/07/05 09:59:25;;;;;;;11.63;5.15;;;17.50;99.90;;;;;;5039800;28;20136;-84
2021/07/05 10:01:53;;;;;;;12.48;5.68;;;17.50;99.90;;;;;;5063895;28;20028;-84
2021/07/05 10:04:27;;;;;;;8.95;4.93;;;17.50;99.90;;;;;;5082100;28;20073;-83
2021/07/05 10:07:02;;;;;;;8.55;4.40;;;17.50;99.90;;;;;;5064235;28;20496;-84
2021/07/05 10:09:33;;;;;;;9.57;4.40;;;17.60;99.90;;;;;;5080943;28;20024;-83
2021/07/05 10:12:19;;;;;;;11.48;4.68;;;17.60;99.90;;;;;;5068421;28;20012;-84
2021/07/05 10:15:06;;;;;;;9.32;4.75;;;17.60;99.90;;;;;;5088274;22;20060;-86
2021/07/05 10:17:43;;;;;;;9.25;4.60;;;17.70;99.90;;;;;;5073250;28;20026;-83
2021/07/05 10:20:14;;;;;;;7.95;4.40;;;17.70;99.90;;;;;;5086052;28;20062;-83
2021/07/05 10:22:41;;;;;;;8.35;4.72;;;17.70;99.90;;;;;;5081288;28;20025;-84
2021/07/05 10:25:08;;;;;;;8.75;4.90;;;17.80;99.90;;;;;;5092328;28;20024;-83
2021/07/05 10:27:35;;;;;;;10.82;5.25;;;17.80;99.90;;;;;;5094247;28;20512;-84
2021/07/05 10:30:04;;;;;;;13.15;5.10;;;17.80;99.90;;;;;;5100571;28;20035;-84
2021/07/05 10:32:30;;;;;;;8.35;4.82;;;17.80;99.60;;;;;;5080659;28;20054;-84
2021/07/05 10:34:56;;;;;;;11.45;4.97;;;17.80;99.50;;;;;;5054447;28;20017;-83
2021/07/05 10:38:03;;;;;;;8.80;4.60;;;17.90;99.50;;;;;;5085990;28;20036;-83
2021/07/05 10:40:39;;;;;;;10.13;4.30;;;17.90;98.60;;;;;;5082666;28;20035;-83
2021/07/05 10:43:06;;;;;;;9.75;4.25;;;17.90;98.90;;;;;;5090533;28;20474;-84
2021/07/05 10:45:53;;;;;;;9.45;4.00;;;17.90;99.50;;;;;;5094134;28;20027;-84
2021/07/05 10:48:31;;;;;;;9.35;4.20;;;17.90;99.90;;;;;;5059959;28;20021;-84
2021/07/05 10:51:01;;;;;;;10.27;3.92;;;17.90;99.90;;;;;;5074617;28;20491;-85
2021/07/05 10:53:32;;;;;;;9.90;3.67;;;17.90;99.90;;;;;;5074232;28;20437;-85
2021/07/05 10:56:03;;;;;;;10.73;3.80;;;17.90;99.80;;;;;;5074409;28;20043;-88
2021/07/05 10:58:34;;;;;;;11.00;4.85;;;18.00;99.90;;;;;;5074222;28;20035;-90
2021/07/05 11:01:06;;;;;;;7.72;4.43;;;18.00;99.90;;;;;;5058948;28;20028;-90
2021/07/05 11:03:38;;;;;;;8.45;4.80;;;18.10;99.80;;;;;;5063564;28;20016;-91
2021/07/05 11:06:09;;;;;;;10.27;4.75;;;18.10;99.90;;;;;;5063658;28;20028;-91
2021/07/05 11:08:44;;;;;;;7.72;4.32;;;18.10;99.90;;;;;;5076864;28;20024;-90
2021/07/05 11:11:29;;;;;;;10.52;4.57;;;18.10;99.90;;;;;;5077524;28;20020;-90
2021/07/05 11:14:10;;;;;;;9.15;4.20;;;18.20;99.90;;;;;;5042595;28;20029;-91
2021/07/05 11:17:08;;;;;;;7.55;3.78;;;18.30;99.90;;;;;;5076281;28;20467;-91
2021/07/05 11:19:47;;;;;;;12.45;4.75;;;18.30;99.90;;;;;;5077534;28;20060;-90
2021/07/05 11:22:27;;;;;;;8.90;4.68;;;18.30;99.70;;;;;;5060673;28;20062;-90
2021/07/05 11:24:55;;;;;;;10.63;4.95;;;18.30;99.30;;;;;;5076292;28;20024;-91
2021/07/05 11:27:34;;;;;;;7.55;3.83;;;18.30;98.50;;;;;;5076501;28;20032;-90
2021/07/05 11:30:14;;;;;;;8.02;4.30;;;18.30;99.40;;;;;;5074703;28;20067;-90
2021/07/05 11:33:04;;;;;;;9.10;4.43;;;18.30;99.50;;;;;;5067163;28;20024;-90
2021/07/05 11:35:35;;;;;;;10.63;4.68;;;18.30;99.40;;;;;;5065586;28;20024;-90
2021/07/05 11:38:09;;;;;;;9.40;4.85;;;18.30;99.70;;;;;;5073902;28;20016;-91
2021/07/05 11:40:48;;;;;;;10.05;4.75;;;18.20;99.10;;;;;;5063369;28;20461;-90
2021/07/05 11:43:16;;;;;;;7.60;4.95;;;18.20;99.80;;;;;;5077316;28;20028;-89
2021/07/05 11:45:49;;;;;;;8.65;5.35;;;18.20;99.90;;;;;;5068486;28;20027;-89
2021/07/05 11:48:51;;;;;;;9.90;5.18;;;18.10;99.90;;;;;;5071038;28;20477;-89
2021/07/05 11:51:20;;;;;;;8.55;3.95;;;18.00;99.90;;;;;;4972869;28;20041;-89
2021/07/05 11:53:58;;;;;;;8.60;4.18;;;17.90;99.90;;;;;;5074774;28;20020;-89
2021/07/05 11:56:37;;;;;;;5.20;3.75;;;17.80;99.90;;;;;;5076076;28;20016;-89
2021/07/05 11:59:10;;;;;;;7.70;4.18;;;17.70;99.90;;;;;;5076388;28;20044;-90
2021/07/05 12:01:37;;;;;;;6.80;4.28;;;17.60;99.90;;;;;;5075969;28;20028;-88
2021/07/05 12:04:05;;;;;;;7.80;3.80;;;17.60;99.90;;;;;;5075812;28;20020;-89
2021/07/05 12:06:32;;;;;;;7.47;3.38;;;17.60;99.90;;;;;;5059138;28;20389;-90
2021/07/05 12:09:07;;;;;;;7.00;3.67;;;17.60;99.90;;;;;;5059069;28;20085;-89
2021/07/05 12:11:42;;;;;;;4.72;3.00;;;17.60;99.90;;;;;;5076346;28;20115;-89
2021/07/05 12:14:21;;;;;;;7.95;3.05;;;17.70;99.90;;;;;;5083902;28;20036;-89
2021/07/05 12:16:58;;;;;;;3.45;2.55;;;17.70;99.90;;;;;;5077206;28;20044;-90
2021/07/05 12:19:27;;;;;;;5.82;2.65;;;17.80;99.90;;;;;;5064206;28;20035;-89
2021/07/05 12:22:00;;;;;;;8.82;3.00;;;17.80;99.90;;;;;;5060000;28;20044;-90
2021/07/05 12:24:28;;;;;;;6.70;3.17;;;17.80;99.90;;;;;;5080098;28;20390;-89
2021/07/05 12:26:59;;;;;;;7.97;3.30;;;17.90;99.90;;;;;;5096242;28;20023;-89
2021/07/05 12:29:33;;;;;;;7.28;3.30;;;17.90;99.90;;;;;;5077791;28;20016;-90
2021/07/05 12:32:05;;;;;;;5.35;3.15;;;18.00;99.90;;;;;;5102992;28;20064;-90
2021/07/05 12:34:48;;;;;;;7.82;3.75;;;18.10;99.90;;;;;;5108237;28;20038;-90
2021/07/05 12:37:22;;;;;;;7.05;3.33;;;18.10;99.90;;;;;;5084777;28;20028;-91
2021/07/05 12:39:52;;;;;;;4.97;2.83;;;18.30;99.90;;;;;;5090703;28;20016;-91
2021/07/05 12:42:30;;;;;;;4.63;2.80;;;18.40;99.90;;;;;;5089026;28;20031;-90
2021/07/05 12:44:57;;;;;;;7.20;3.30;;;18.40;99.90;;;;;;5100704;28;20380;-90
2021/07/05 12:47:23;;;;;;;5.47;3.08;;;18.50;99.50;;;;;;5077807;28;20471;-91
2021/07/05 12:49:51;;;;;;;8.10;3.28;;;18.60;99.40;;;;;;5079577;28;20031;-91
2021/07/05 12:52:17;;;;;;;6.63;3.35;;;18.70;99.80;;;;;;5065002;28;20028;-91